• Join FlightAware (Why Join?)
  • Login
  • US Flag 
12:23AM EDT


 

Airport Tracker/Info


-or-


 

Live Flight TrackerFlight Track Log ✈ QFA487 ✈ 26-Apr-2012 ✈ YSSY / SYD - YMML / MEL

Flight Track Log - Related Links

Times and Time Zones

All times are in EDT time to prevent confusion due to time zone crossing. See the QFA487 flight status page for this flight to view local times or setup timezone preferences in your user account.

Time Position Orientation Groundspeed Altitude Reporting Facility
EDT Latitude Longitude Course Direction KTS MPH feet Rate Location/Type
05:55AM -37.6734 144.8434 56° Northeast  Level FlightAware Approximate
05:56AM -37.6471 144.7487 57° Northeast  Level Estimated
05:57AM -37.6734 144.8434 56° Northeast  Level FlightAware Approximate
05:58AM -37.6471 144.7487 57° Northeast  Level Estimated
05:59AM -33.9460 151.1771 178° South  Level FlightAware Approximate
06:00AM -34.0056 151.0840 68° East  Level FlightAware Approximate
06:01AM -34.0650 150.9909 60° Northeast  Level FlightAware Approximate
06:02AM -34.1245 150.8975 57° Northeast  Level FlightAware Approximate
06:03AM -34.1838 150.8041 56° Northeast  Level FlightAware Approximate
06:04AM -34.2431 150.7105 55° Northeast  Level FlightAware Approximate
06:05AM -34.3023 150.6168 55° Northeast  Level FlightAware Approximate
06:06AM -34.3614 150.5230 55° Northeast  Level FlightAware Approximate
06:07AM -34.4205 150.4290 54° Northeast  Level FlightAware Approximate
06:12AM -33.9741 151.1784 183° South 165 190 2,000  Level Aus ATC (RADAR)
06:13AM -34.0121 151.1764 169° South 213 245 3,800 1,800 Climbing Aus ATC (RADAR)
06:14AM -34.0873 151.1946 165° South 311 358 5,000 1,500 Climbing Aus ATC (RADAR)
06:14AM -34.1433 151.2132 211° Southwest 314 361 6,300 3,060 Climbing Aus ATC (RADAR)
06:15AM -34.2171 151.1604 222° Southwest 313 360 10,100 3,720 Climbing Aus ATC (RADAR)
06:16AM -34.2919 151.0780 222° Southwest 332 382 14,000 3,600 Climbing Aus ATC (RADAR)
06:17AM -34.3402 151.0262 222° Southwest 339 390 16,400 3,360 Climbing Aus ATC (RADAR)
06:18AM -34.3898 150.9726 222° Southwest 354 407 18,500 3,060 Climbing Aus ATC (RADAR)
06:19AM -34.4473 150.9102 222° Southwest 364 419 20,800 2,820 Climbing Aus ATC (RADAR)
06:20AM -34.5336 150.8172 229° Southwest 381 438 23,700 2,640 Climbing Aus ATC (RADAR)
06:20AM -34.5880 150.7414 234° Southwest 390 449 25,700 2,580 Climbing Aus ATC (RADAR)
06:21AM -34.6546 150.6304 234° Southwest 400 460 28,300 2,400 Climbing Aus ATC (RADAR)
06:22AM -34.7054 150.5457 234° Southwest 407 468 30,000 2,220 Climbing Aus ATC (RADAR)
06:23AM -34.7455 150.4789 234° Southwest 410 472 31,300 2,700 Climbing Aus ATC (RADAR)
06:23AM -34.7847 150.4142 234° Southwest 395 455 33,200 2,820 Climbing Aus ATC (RADAR)
06:24AM -34.8230 150.3501 234° Southwest 393 452 34,600 2,280 Climbing Aus ATC (RADAR)
06:24AM -34.8611 150.2860 234° Southwest 390 449 35,900 1,800 Climbing Aus ATC (RADAR)
06:25AM -34.9259 150.1768 234° Southwest 390 449 37,500 1,140 Climbing Aus ATC (RADAR)
06:26AM -34.9909 150.0667 234° Southwest 397 457 38,200 420 Climbing Aus ATC (RADAR)
06:27AM -35.0345 149.9933 234° Southwest 395 455 38,200  Level Aus ATC (RADAR)
06:28AM -35.0721 149.9289 234° Southwest 394 453 38,200  Level Aus ATC (RADAR)
06:28AM -35.1206 149.8466 234° Southwest 392 451 38,200  Level Aus ATC (RADAR)
06:29AM -35.1850 149.7375 234° Southwest 388 447 38,200  Level Aus ATC (RADAR)
06:30AM -35.2461 149.6339 235° Southwest 363 418 38,200  Level Aus ATC (RADAR)
06:32AM -35.3093 149.5251 234° Southwest 356 410 38,200  Level Aus ATC (RADAR)
06:33AM -35.3677 149.4251 235° Southwest 357 411 38,200  Level Aus ATC (RADAR)
06:33AM -35.4119 149.3489 235° Southwest 363 418 38,200  Level Aus ATC (RADAR)
06:34AM -35.4463 149.2894 235° Southwest 363 418 38,200  Level Aus ATC (RADAR)
06:35AM -35.4906 149.2128 235° Southwest 363 418 38,200  Level Aus ATC (RADAR)
06:36AM -35.5600 149.0920 235° Southwest 369 425 38,200  Level Aus ATC (RADAR)
06:37AM -35.6050 149.0142 235° Southwest 368 423 38,200  Level Aus ATC (RADAR)
06:37AM -35.6399 148.9533 235° Southwest 370 426 38,200  Level Aus ATC (RADAR)
06:38AM -35.6896 148.8660 234° Southwest 371 427 38,200  Level Aus ATC (RADAR)
06:39AM -35.7249 148.8057 235° Southwest 369 425 38,200  Level Aus ATC (RADAR)
06:39AM -35.7698 148.7271 235° Southwest 370 426 38,200  Level Aus ATC (RADAR)
06:40AM -35.8293 148.6221 235° Southwest 370 426 38,200  Level Aus ATC (RADAR)
06:41AM -35.8835 148.5258 235° Southwest 370 426 38,200  Level Aus ATC (RADAR)
06:42AM -35.9130 148.4731 235° Southwest 371 427 38,200  Level Aus ATC (RADAR)
06:42AM -35.9476 148.4118 235° Southwest 370 426 38,200  Level Aus ATC (RADAR)
06:43AM -35.9967 148.3247 235° Southwest 367 422 38,200  Level Aus ATC (RADAR)
06:44AM -36.0311 148.2638 235° Southwest 367 422 38,200  Level Aus ATC (RADAR)
06:44AM -36.0748 148.1862 235° Southwest 364 419 38,200  Level Aus ATC (RADAR)
06:45AM -36.1325 148.0832 235° Southwest 361 415 38,200  Level Aus ATC (RADAR)
06:46AM -36.1805 147.9977 235° Southwest 361 415 38,200  Level Aus ATC (RADAR)
06:47AM -36.2090 147.9465 236° Southwest 359 413 38,200  Level Aus ATC (RADAR)
06:47AM -36.2419 147.8862 235° Southwest 361 415 38,200  Level Aus ATC (RADAR)
06:48AM -36.2899 147.8001 236° Southwest 365 420 38,200  Level Aus ATC (RADAR)
06:49AM -36.3227 147.7395 235° Southwest 362 417 38,200  Level Aus ATC (RADAR)
06:49AM -36.3662 147.6619 236° Southwest 362 417 38,200  Level Aus ATC (RADAR)
06:50AM -36.4236 147.5569 235° Southwest 368 423 38,200  Level Aus ATC (RADAR)
06:51AM -36.4767 147.4607 236° Southwest 367 422 38,200  Level Aus ATC (RADAR)
06:52AM -36.5348 147.3542 236° Southwest 372 428 38,200  Level Aus ATC (RADAR)
06:53AM -36.5739 147.2831 236° Southwest 373 429 38,200  Level Aus ATC (RADAR)
06:54AM -36.6080 147.2199 236° Southwest 375 432 38,200  Level Aus ATC (RADAR)
06:54AM -36.6425 147.1564 236° Southwest 377 434 38,200  Level Aus ATC (RADAR)
06:55AM -36.6819 147.0833 235° Southwest 380 437 38,200  Level Aus ATC (RADAR)
06:55AM -36.7171 147.0195 236° Southwest 383 441 38,200  Level Aus ATC (RADAR)
06:56AM -36.7773 146.9089 236° Southwest 384 442 38,200 -120 Level Aus ATC (RADAR)
06:58AM -36.8420 146.7878 236° Southwest 384 442 38,000 -960 Descending Aus ATC (RADAR)
06:58AM -36.8814 146.7144 236° Southwest 385 443 36,600 -2,280 Descending Aus ATC (RADAR)
06:59AM -36.9208 146.6415 236° Southwest 381 438 35,000 -2,100 Descending Aus ATC (RADAR)
06:59AM -36.9540 146.5788 236° Southwest 372 428 34,000 -1,920 Descending Aus ATC (RADAR)
07:00AM -36.9964 146.5003 236° Southwest 363 418 32,500 -1,980 Descending Aus ATC (RADAR)
07:01AM -37.0332 146.4321 236° Southwest 355 409 31,200 -1,980 Descending Aus ATC (RADAR)
07:02AM -37.0861 146.3320 236° Southwest 342 394 29,300 -1,920 Descending Aus ATC (RADAR)
07:03AM -37.1373 146.2350 237° Southwest 329 379 27,500 -1,800 Descending Aus ATC (RADAR)
07:04AM -37.1745 146.1642 236° Southwest 324 373 26,200 -1,800 Descending Aus ATC (RADAR)
07:04AM -37.2032 146.1106 237° Southwest 319 367 25,100 -2,400 Descending Aus ATC (RADAR)
07:05AM -37.2313 146.0563 236° Southwest 323 372 23,400 -2,520 Descending Aus ATC (RADAR)
07:06AM -37.2704 145.9829 237° Southwest 341 392 21,800 -2,040 Descending Aus ATC (RADAR)
07:06AM -37.2963 145.9336 237° Southwest 341 392 20,900 -2,220 Descending Aus ATC (RADAR)
07:07AM -37.3526 145.8261 236° Southwest 344 396 18,300 -2,340 Descending Aus ATC (RADAR)
07:08AM -37.4020 145.7323 236° Southwest 356 410 16,300 -2,100 Descending Aus ATC (RADAR)
07:09AM -37.4337 145.6720 253° West 354 407 15,200 -1,200 Descending Aus ATC (RADAR)
07:09AM -37.4516 145.6004 272° West 323 372 14,800 -600 Descending Aus ATC (RADAR)
07:10AM -37.4497 145.5249 271° West 278 320 14,400 -1,080 Descending Aus ATC (RADAR)
07:11AM -37.4487 145.4372 271° West 272 313 13,000 -1,560 Descending Aus ATC (RADAR)
07:12AM -37.4474 145.3125 267° West 267 307 11,000 -1,560 Descending Aus ATC (RADAR)
07:13AM -37.4514 145.2207 269° West 264 304 9,400 -1,560 Descending Aus ATC (RADAR)
07:14AM -37.4524 145.1672 273° West 262 302 8,600 -1,440 Descending Aus ATC (RADAR)
07:15AM -37.4493 145.0990 275° West 259 298 7,500 -1,440 Descending Aus ATC (RADAR)
07:16AM -37.4440 145.0168 272° West 257 296 6,200 -1,440 Descending Aus ATC (RADAR)
07:16AM -37.4423 144.9426 260° West 255 293 5,000 -1,080 Descending Aus ATC (RADAR)
07:17AM -37.4527 144.8667 260° West 231 266 4,400 -540 Descending Aus ATC (RADAR)
07:18AM -37.4587 144.8251 219° Southwest 199 229 4,200 -480 Descending Aus ATC (RADAR)
07:18AM -37.4807 144.8028 172° South 178 205 3,900 -720 Descending Aus ATC (RADAR)
07:19AM -37.5144 144.8087 171° South 174 200 3,300 -960 Descending Aus ATC (RADAR)
07:20AM -37.5627 144.8178 171° South 149 171 2,300 -900 Descending Aus ATC (RADAR)
07:21AM -37.5963 144.8242 172° South 127 146 1,600 -780 Descending Aus ATC (RADAR)
07:22AM -37.6170 144.8278 171° South 125 144 1,200 -660 Descending Aus ATC (RADAR)
07:23AM -37.6627 144.8365 171° South 127 146 400 -660 Descending Aus ATC (RADAR)